createdAt,value
2022-08-29T00:02:10.189Z,18.68
2022-08-29T00:04:42.968Z,18.67
2022-08-29T00:07:15.482Z,18.67
2022-08-29T00:09:47.438Z,18.69
2022-08-29T00:12:19.805Z,18.72
2022-08-29T00:14:51.813Z,18.75
2022-08-29T00:17:23.999Z,18.76
2022-08-29T00:19:55.990Z,18.73
2022-08-29T00:22:28.173Z,18.69
2022-08-29T00:25:05.022Z,18.65
2022-08-29T00:27:37.067Z,18.59
2022-08-29T00:30:11.006Z,18.59
2022-08-29T00:32:43.190Z,18.59
2022-08-29T00:35:21.473Z,18.53
2022-08-29T00:37:55.081Z,18.49
2022-08-29T00:40:38.407Z,18.48
2022-08-29T00:43:11.238Z,18.46
2022-08-29T00:46:00.805Z,18.44
2022-08-29T00:48:35.081Z,18.31
2022-08-29T00:51:13.452Z,18.32
2022-08-29T00:53:50.707Z,18.29
2022-08-29T00:56:22.794Z,18.27
2022-08-29T00:59:02.699Z,18.21
2022-08-29T01:01:35.162Z,18.17
2022-08-29T01:04:09.801Z,18.10
2022-08-29T01:06:48.009Z,18.09
2022-08-29T01:09:21.189Z,18.04
2022-08-29T01:12:13.168Z,18.08
2022-08-29T01:14:59.910Z,18.02
2022-08-29T01:17:39.402Z,17.93
2022-08-29T01:20:56.501Z,17.92
2022-08-29T01:23:56.414Z,17.90
2022-08-29T01:26:30.304Z,17.87
2022-08-29T01:29:02.413Z,17.86
2022-08-29T01:31:56.625Z,17.83
2022-08-29T01:34:30.297Z,17.81
2022-08-29T01:37:06.670Z,17.77
2022-08-29T01:39:42.362Z,17.77
2022-08-29T01:42:21.761Z,17.76
2022-08-29T01:44:59.443Z,17.77
2022-08-29T01:47:38.842Z,17.77
2022-08-29T01:50:16.039Z,17.77
2022-08-29T01:52:48.118Z,17.72
2022-08-29T01:55:20.240Z,17.73
2022-08-29T01:57:52.525Z,17.74
2022-08-29T02:00:26.292Z,17.72
2022-08-29T02:03:01.051Z,17.68
2022-08-29T02:05:33.042Z,17.62
2022-08-29T02:08:05.313Z,17.59
2022-08-29T02:10:37.293Z,17.54
2022-08-29T02:13:10.432Z,17.56
2022-08-29T02:15:42.467Z,17.53
2022-08-29T02:18:14.498Z,17.51
2022-08-29T02:20:46.802Z,17.47
2022-08-29T02:23:30.469Z,17.49
2022-08-29T02:26:04.991Z,17.46
2022-08-29T02:28:38.466Z,17.39
2022-08-29T02:31:10.606Z,17.40
2022-08-29T02:33:42.709Z,17.38
2022-08-29T02:36:16.387Z,17.36
2022-08-29T02:38:51.215Z,17.33
2022-08-29T02:41:23.371Z,17.32
2022-08-29T02:43:55.434Z,17.31
2022-08-29T02:46:27.501Z,17.32
2022-08-29T02:49:00.551Z,17.34
2022-08-29T02:51:34.998Z,17.26
2022-08-29T02:54:07.098Z,17.23
2022-08-29T02:56:39.991Z,17.31
2022-08-29T02:59:12.194Z,17.39
2022-08-29T03:01:44.281Z,17.35
2022-08-29T03:04:16.259Z,17.36
2022-08-29T03:06:48.365Z,17.39
2022-08-29T03:09:20.328Z,17.46
2022-08-29T03:11:56.185Z,17.51
2022-08-29T03:14:28.283Z,17.44
2022-08-29T03:17:00.504Z,17.41
2022-08-29T03:19:32.543Z,17.43
2022-08-29T03:22:09.627Z,17.40
2022-08-29T03:24:41.654Z,17.33
2022-08-29T03:27:13.919Z,17.37
2022-08-29T03:29:46.401Z,17.28
2022-08-29T03:32:18.379Z,17.23
2022-08-29T03:34:50.601Z,17.26
2022-08-29T03:37:22.875Z,17.25
2022-08-29T03:39:56.439Z,17.20
2022-08-29T03:42:28.465Z,17.15
2022-08-29T03:45:04.918Z,17.22
2022-08-29T03:47:36.969Z,17.24
2022-08-29T03:50:10.379Z,17.29
2022-08-29T03:52:44.265Z,17.27
2022-08-29T03:55:17.474Z,17.31
2022-08-29T03:57:49.465Z,17.34
2022-08-29T04:00:21.686Z,17.36
2022-08-29T04:02:55.606Z,17.42
2022-08-29T04:05:27.867Z,17.48
2022-08-29T04:08:00.384Z,17.51
2022-08-29T04:10:38.559Z,17.51
2022-08-29T04:13:10.592Z,17.50
2022-08-29T04:15:43.029Z,17.53
2022-08-29T04:18:15.612Z,17.52
2022-08-29T04:21:02.494Z,17.51
2022-08-29T04:23:36.692Z,17.55
2022-08-29T04:26:35.779Z,17.55
2022-08-29T04:29:12.093Z,17.56
2022-08-29T04:31:44.456Z,17.59
2022-08-29T04:34:16.845Z,17.62
2022-08-29T04:36:48.842Z,17.63
2022-08-29T04:39:20.867Z,17.65
2022-08-29T04:41:52.968Z,17.72
2022-08-29T04:44:25.036Z,17.78
2022-08-29T04:46:57.003Z,17.80
2022-08-29T04:49:29.088Z,17.86
2022-08-29T04:52:01.169Z,17.83
2022-08-29T04:54:33.198Z,17.86
2022-08-29T04:57:05.313Z,17.89
2022-08-29T04:59:37.429Z,17.99
2022-08-29T05:02:09.433Z,18.03
2022-08-29T05:04:41.479Z,17.99
2022-08-29T05:07:13.447Z,17.98
2022-08-29T05:09:45.447Z,18.04
2022-08-29T05:12:18.426Z,18.04
2022-08-29T05:14:50.581Z,18.12
2022-08-29T05:17:24.577Z,18.15
2022-08-29T05:19:56.618Z,18.18
2022-08-29T05:22:28.601Z,18.21
2022-08-29T05:25:01.695Z,18.20
2022-08-29T05:27:34.169Z,18.16
2022-08-29T05:30:07.367Z,18.24
2022-08-29T05:32:39.370Z,18.26
2022-08-29T05:35:11.372Z,18.29
2022-08-29T05:37:43.326Z,18.30
2022-08-29T05:40:15.352Z,18.29
2022-08-29T05:42:47.373Z,18.28
2022-08-29T05:45:22.288Z,18.30
2022-08-29T05:47:56.043Z,18.33
2022-08-29T05:50:28.081Z,18.41
2022-08-29T05:53:00.062Z,18.44
2022-08-29T05:55:32.052Z,18.44
2022-08-29T05:58:04.105Z,18.49
2022-08-29T06:00:40.023Z,18.49
2022-08-29T06:03:14.388Z,18.50
2022-08-29T06:05:52.444Z,18.55
2022-08-29T06:08:24.474Z,18.67
2022-08-29T06:10:56.473Z,18.65
2022-08-29T06:13:28.544Z,18.78
2022-08-29T06:16:00.643Z,18.96
2022-08-29T06:18:35.901Z,19.09
2022-08-29T06:21:09.550Z,19.19
2022-08-29T06:23:43.977Z,19.28
2022-08-29T06:26:16.373Z,19.32
2022-08-29T06:28:48.957Z,19.40
2022-08-29T06:31:28.156Z,19.47
2022-08-29T06:34:04.943Z,19.54
2022-08-29T06:36:38.029Z,19.55
2022-08-29T06:39:11.594Z,19.51
2022-08-29T06:41:43.679Z,19.52
2022-08-29T06:44:15.762Z,19.60
2022-08-29T06:46:49.974Z,19.69
2022-08-29T06:49:22.190Z,19.82
2022-08-29T06:51:58.101Z,19.88
2022-08-29T06:54:30.567Z,19.99
2022-08-29T06:57:02.609Z,20.05
2022-08-29T06:59:34.587Z,20.02
2022-08-29T07:02:06.965Z,19.95
2022-08-29T07:04:38.974Z,19.89
2022-08-29T07:07:11.078Z,19.92
2022-08-29T07:09:44.317Z,19.92
2022-08-29T07:12:16.331Z,19.91
2022-08-29T07:14:48.315Z,19.97
2022-08-29T07:17:25.839Z,20.09
2022-08-29T07:19:57.982Z,20.21
2022-08-29T07:22:30.194Z,20.25
2022-08-29T07:25:02.360Z,20.29
2022-08-29T07:27:36.549Z,20.27
2022-08-29T07:30:09.325Z,20.17
2022-08-29T07:32:43.400Z,20.17
2022-08-29T07:35:19.842Z,20.22
2022-08-29T07:37:59.085Z,20.33
2022-08-29T07:40:31.266Z,20.49
2022-08-29T07:43:04.705Z,20.76
2022-08-29T07:45:39.798Z,21.11
2022-08-29T07:48:11.928Z,21.34
2022-08-29T07:50:43.870Z,21.40
2022-08-29T07:53:17.361Z,21.59
2022-08-29T07:55:49.436Z,21.80
2022-08-29T07:58:21.446Z,22.21
2022-08-29T08:00:53.394Z,22.23
2022-08-29T08:03:27.188Z,22.23
2022-08-29T08:05:59.714Z,22.36
2022-08-29T08:08:36.689Z,22.69
2022-08-29T08:11:09.862Z,22.66
2022-08-29T08:13:42.145Z,22.80
2022-08-29T08:16:19.123Z,23.12
2022-08-29T08:18:52.203Z,23.25
2022-08-29T08:21:26.598Z,23.65
2022-08-29T08:23:58.756Z,23.99
2022-08-29T08:26:31.209Z,24.34
2022-08-29T08:29:04.295Z,24.60
2022-08-29T08:31:36.657Z,24.57
2022-08-29T08:34:08.757Z,24.41
2022-08-29T08:36:42.848Z,24.16
2022-08-29T08:39:15.118Z,24.20
2022-08-29T08:41:57.235Z,24.14
2022-08-29T08:44:55.984Z,23.94
2022-08-29T08:47:37.940Z,23.69
2022-08-29T08:50:21.575Z,23.55
2022-08-29T08:53:00.330Z,23.13
2022-08-29T08:55:46.972Z,23.53
2022-08-29T08:58:32.868Z,23.96
2022-08-29T09:01:21.633Z,24.09
2022-08-29T09:04:12.848Z,24.32
2022-08-29T09:07:27.629Z,25.36
2022-08-29T09:10:40.923Z,25.84
2022-08-29T09:13:25.885Z,26.19
2022-08-29T09:16:01.703Z,26.46
2022-08-29T09:18:40.794Z,26.49
2022-08-29T09:21:39.922Z,26.03
2022-08-29T09:24:28.853Z,25.80
2022-08-29T09:27:00.920Z,25.95
2022-08-29T09:29:32.946Z,26.28
2022-08-29T09:32:18.806Z,26.46
2022-08-29T09:35:10.030Z,26.65
2022-08-29T09:37:42.278Z,26.81
2022-08-29T09:40:19.341Z,26.65
2022-08-29T09:43:03.901Z,26.48
2022-08-29T09:45:35.968Z,26.20
2022-08-29T09:48:14.972Z,25.67
2022-08-29T09:50:47.349Z,25.40
2022-08-29T09:53:24.628Z,24.96
2022-08-29T09:56:07.872Z,24.67
2022-08-29T09:58:42.836Z,24.49
2022-08-29T10:01:22.701Z,24.55
2022-08-29T10:04:03.680Z,24.66
2022-08-29T10:06:44.214Z,24.87
2022-08-29T10:09:28.628Z,25.16
2022-08-29T10:12:14.088Z,25.64
2022-08-29T10:14:53.671Z,26.21
2022-08-29T10:17:58.119Z,26.67
2022-08-29T10:20:56.196Z,27.15
2022-08-29T10:24:01.447Z,27.24
2022-08-29T10:27:12.219Z,27.39
2022-08-29T10:30:09.491Z,27.57
2022-08-29T10:32:54.214Z,27.97
2022-08-29T10:36:06.737Z,27.83
2022-08-29T10:39:06.433Z,27.69
2022-08-29T10:41:56.418Z,27.73
2022-08-29T10:44:48.198Z,27.80
2022-08-29T10:47:58.693Z,28.00
2022-08-29T10:50:58.801Z,28.00
2022-08-29T10:54:07.023Z,28.35
2022-08-29T10:56:44.391Z,28.93
2022-08-29T10:59:52.705Z,29.80
2022-08-29T11:03:24.870Z,30.90
2022-08-29T11:06:07.020Z,31.22
2022-08-29T11:08:48.060Z,31.81
2022-08-29T11:11:21.485Z,32.94
2022-08-29T11:14:05.425Z,33.72
2022-08-29T11:16:47.101Z,33.38
2022-08-29T11:19:29.320Z,32.22
2022-08-29T11:22:16.447Z,31.20
2022-08-29T11:25:08.450Z,31.59
2022-08-29T11:28:04.186Z,31.35
2022-08-29T11:31:15.118Z,29.67
2022-08-29T11:34:43.365Z,28.55
2022-08-29T11:37:42.842Z,27.65
2022-08-29T11:41:30.666Z,27.41
2022-08-29T11:44:31.401Z,28.02
2022-08-29T11:47:46.388Z,28.60
2022-08-29T11:50:30.155Z,30.12
2022-08-29T11:53:35.314Z,33.25
2022-08-29T11:56:13.482Z,34.32
2022-08-29T11:58:52.451Z,33.48
2022-08-29T12:01:36.737Z,31.90
2022-08-29T12:04:11.764Z,31.34
2022-08-29T12:07:01.287Z,32.53
2022-08-29T12:10:04.178Z,34.16
2022-08-29T12:12:45.359Z,35.68
2022-08-29T12:15:32.658Z,35.74
2022-08-29T12:18:13.406Z,35.52
2022-08-29T12:20:55.889Z,36.30
2022-08-29T12:23:35.478Z,36.31
2022-08-29T12:26:43.658Z,37.24
2022-08-29T12:29:44.723Z,37.92
2022-08-29T12:33:07.952Z,38.18
2022-08-29T12:36:07.538Z,36.73
2022-08-29T12:39:19.865Z,35.53
2022-08-29T12:42:01.774Z,34.42
2022-08-29T12:44:47.270Z,34.36
2022-08-29T12:47:28.727Z,35.41
2022-08-29T12:50:06.978Z,35.73
2022-08-29T12:52:39.436Z,36.43
2022-08-29T12:55:43.583Z,36.41
2022-08-29T12:59:00.216Z,36.62
2022-08-29T13:01:39.185Z,36.55
2022-08-29T13:04:11.077Z,36.49
2022-08-29T13:07:16.391Z,35.43
2022-08-29T13:09:55.970Z,35.07
2022-08-29T13:12:35.721Z,34.31
2022-08-29T13:15:30.849Z,32.71
2022-08-29T13:18:06.570Z,31.81
2022-08-29T13:20:38.504Z,30.53
2022-08-29T13:23:26.331Z,29.47
2022-08-29T13:26:14.701Z,28.72
2022-08-29T13:28:48.230Z,28.92
2022-08-29T13:31:21.589Z,28.51
2022-08-29T13:33:56.212Z,27.70
2022-08-29T13:36:31.096Z,27.20
2022-08-29T13:39:18.204Z,27.09
2022-08-29T13:42:02.094Z,26.77
2022-08-29T13:44:48.975Z,26.73
2022-08-29T13:47:28.048Z,27.35
2022-08-29T13:50:05.651Z,27.79
2022-08-29T13:52:38.705Z,28.11
2022-08-29T13:55:11.414Z,28.23
2022-08-29T13:57:46.648Z,28.34
2022-08-29T14:00:32.010Z,28.63
2022-08-29T14:03:09.317Z,28.71
2022-08-29T14:05:41.511Z,28.62
2022-08-29T14:08:14.121Z,28.90
2022-08-29T14:10:46.251Z,28.73
2022-08-29T14:13:18.249Z,28.65
2022-08-29T14:15:50.615Z,28.54
2022-08-29T14:18:22.655Z,28.50
2022-08-29T14:20:54.838Z,28.49
2022-08-29T14:23:26.868Z,28.48
2022-08-29T14:25:59.988Z,28.50
2022-08-29T14:28:32.037Z,28.48
2022-08-29T14:31:04.311Z,28.34
2022-08-29T14:33:36.895Z,28.00
2022-08-29T14:36:09.235Z,27.57
2022-08-29T14:38:41.227Z,27.24
2022-08-29T14:41:13.434Z,26.99
2022-08-29T14:43:45.413Z,26.74
2022-08-29T14:46:17.446Z,26.43
2022-08-29T14:48:49.523Z,26.18
2022-08-29T14:51:21.574Z,26.16
2022-08-29T14:53:54.617Z,26.36
2022-08-29T14:56:47.504Z,26.57
2022-08-29T14:59:23.072Z,26.56
2022-08-29T15:01:55.751Z,26.43
2022-08-29T15:04:35.888Z,26.09
2022-08-29T15:07:12.573Z,25.76
2022-08-29T15:09:44.962Z,25.57
2022-08-29T15:12:18.047Z,25.31
2022-08-29T15:14:50.068Z,25.14
2022-08-29T15:17:23.893Z,25.00
2022-08-29T15:22:48.105Z,24.75
2022-08-29T15:25:20.600Z,24.72
2022-08-29T15:27:52.714Z,24.63
2022-08-29T15:30:25.575Z,24.60
2022-08-29T15:32:58.061Z,24.52
2022-08-29T15:35:30.260Z,24.51
2022-08-29T15:38:07.554Z,24.43
2022-08-29T15:40:39.530Z,24.41
2022-08-29T15:43:12.314Z,24.37
2022-08-29T15:45:44.283Z,24.29
2022-08-29T15:48:16.876Z,24.25
2022-08-29T15:50:50.908Z,24.19
2022-08-29T15:53:22.895Z,24.25
2022-08-29T15:55:54.953Z,24.27
2022-08-29T15:58:26.981Z,24.28
2022-08-29T16:00:59.398Z,24.17
2022-08-29T16:03:31.967Z,24.04
2022-08-29T16:06:04.463Z,24.04
2022-08-29T16:08:37.173Z,23.92
2022-08-29T16:11:09.471Z,23.92
2022-08-29T16:13:41.620Z,23.84
2022-08-29T16:16:15.144Z,23.87
2022-08-29T16:18:47.201Z,23.91
2022-08-29T16:21:20.318Z,23.93
2022-08-29T16:23:53.091Z,23.98
2022-08-29T16:26:25.104Z,24.00
2022-08-29T16:28:57.307Z,23.98
2022-08-29T16:31:29.403Z,23.91
2022-08-29T16:34:02.483Z,23.83
2022-08-29T16:36:34.973Z,23.70
2022-08-29T16:39:09.663Z,23.64
2022-08-29T16:41:44.565Z,23.51
2022-08-29T16:44:16.726Z,23.45
2022-08-29T16:46:48.837Z,23.39
2022-08-29T16:49:20.804Z,23.36
2022-08-29T16:51:52.783Z,23.27
2022-08-29T16:54:25.021Z,23.27
2022-08-29T16:56:57.615Z,23.19
2022-08-29T16:59:30.052Z,23.21
2022-08-29T17:02:02.794Z,23.22
2022-08-29T17:04:35.290Z,23.19
2022-08-29T17:07:07.567Z,23.21
2022-08-29T17:09:39.540Z,23.20
2022-08-29T17:12:11.679Z,23.17
2022-08-29T17:14:43.926Z,23.14
2022-08-29T17:17:16.352Z,23.13
2022-08-29T17:19:48.536Z,23.11
2022-08-29T17:22:20.807Z,23.04
2022-08-29T17:24:53.275Z,23.01
2022-08-29T17:27:29.876Z,22.94
2022-08-29T17:30:03.836Z,22.86
2022-08-29T17:32:35.861Z,22.82
2022-08-29T17:35:08.666Z,22.79
2022-08-29T17:37:40.630Z,22.73
2022-08-29T17:40:13.410Z,22.66
2022-08-29T17:42:47.818Z,22.62
2022-08-29T17:45:19.851Z,22.56
2022-08-29T17:47:51.916Z,22.49
2022-08-29T17:50:25.427Z,22.46
2022-08-29T17:52:58.236Z,22.37
2022-08-29T17:55:30.453Z,22.37
2022-08-29T17:58:02.533Z,22.31
2022-08-29T18:00:36.141Z,22.31
2022-08-29T18:03:08.223Z,22.26
2022-08-29T18:05:40.259Z,22.21
2022-08-29T18:08:12.299Z,22.16
2022-08-29T18:10:44.295Z,22.16
2022-08-29T18:13:21.013Z,22.09
2022-08-29T18:15:53.951Z,22.06
2022-08-29T18:18:26.503Z,22.04
2022-08-29T18:20:58.706Z,21.99
2022-08-29T18:23:31.159Z,21.92
2022-08-29T18:26:05.011Z,21.87
2022-08-29T18:28:37.059Z,21.84
2022-08-29T18:31:11.668Z,21.83
2022-08-29T18:34:00.192Z,21.79
2022-08-29T18:36:36.314Z,21.74
2022-08-29T18:39:12.568Z,21.65
2022-08-29T18:41:45.008Z,21.57
2022-08-29T18:44:16.973Z,21.53
2022-08-29T18:46:49.005Z,21.53
2022-08-29T18:49:41.187Z,21.52
2022-08-29T18:52:14.518Z,21.52
2022-08-29T18:54:46.541Z,21.51
2022-08-29T18:57:18.585Z,21.51
2022-08-29T18:59:51.007Z,21.46
2022-08-29T19:02:23.510Z,21.43
2022-08-29T19:04:55.607Z,21.39
2022-08-29T19:07:27.629Z,21.36
2022-08-29T19:09:59.650Z,21.31
2022-08-29T19:12:31.745Z,21.25
2022-08-29T19:15:06.183Z,21.23
2022-08-29T19:17:41.203Z,21.22
2022-08-29T19:20:35.438Z,21.15
2022-08-29T19:23:08.925Z,21.11
2022-08-29T19:25:41.906Z,21.08
2022-08-29T19:28:15.695Z,21.05
2022-08-29T19:30:49.597Z,20.98
2022-08-29T19:33:21.970Z,20.93
2022-08-29T19:35:54.059Z,20.90
2022-08-29T19:38:27.601Z,20.85
2022-08-29T19:41:01.521Z,20.79
2022-08-29T19:43:35.203Z,20.77
2022-08-29T19:46:18.315Z,20.73
2022-08-29T19:48:52.332Z,20.69
2022-08-29T19:51:25.471Z,20.66
2022-08-29T19:53:57.739Z,20.58
2022-08-29T19:56:30.138Z,20.56
2022-08-29T19:59:02.221Z,20.51
2022-08-29T20:01:34.543Z,20.51
2022-08-29T20:04:06.770Z,20.48
2022-08-29T20:06:38.786Z,20.46
2022-08-29T20:09:11.148Z,20.48
2022-08-29T20:11:43.818Z,20.44
2022-08-29T20:14:16.894Z,20.41
2022-08-29T20:16:49.161Z,20.34
2022-08-29T20:19:21.941Z,20.33
2022-08-29T20:21:54.385Z,20.25
2022-08-29T20:24:27.373Z,20.25
2022-08-29T20:27:01.090Z,20.25
2022-08-29T20:29:33.136Z,20.23
2022-08-29T20:32:07.303Z,20.22
2022-08-29T20:34:39.542Z,20.21
2022-08-29T20:37:15.227Z,20.15
2022-08-29T20:39:47.902Z,20.11
2022-08-29T20:42:22.034Z,20.07
2022-08-29T20:44:57.937Z,20.05
2022-08-29T20:47:29.982Z,20.04
2022-08-29T20:50:02.172Z,20.04
2022-08-29T20:52:37.260Z,20.01
2022-08-29T20:55:09.511Z,19.97
2022-08-29T20:57:41.830Z,19.93
2022-08-29T21:00:14.756Z,19.94
2022-08-29T21:03:06.763Z,19.91
2022-08-29T21:05:45.672Z,19.92
2022-08-29T21:08:22.763Z,19.93
2022-08-29T21:10:56.382Z,19.90
2022-08-29T21:13:29.016Z,19.86
2022-08-29T21:16:01.835Z,19.83
2022-08-29T21:18:34.005Z,19.80
2022-08-29T21:21:06.934Z,19.78
2022-08-29T21:23:40.211Z,19.74
2022-08-29T21:26:14.037Z,19.70
2022-08-29T21:28:47.180Z,19.67
2022-08-29T21:31:20.694Z,19.68
2022-08-29T21:33:52.863Z,19.61
2022-08-29T21:36:29.326Z,19.59
2022-08-29T21:39:01.520Z,19.55
2022-08-29T21:41:37.123Z,19.54
2022-08-29T21:44:11.610Z,19.50
2022-08-29T21:46:46.333Z,19.47
2022-08-29T21:49:21.581Z,19.42
2022-08-29T21:51:53.893Z,19.36
2022-08-29T21:54:26.763Z,19.32
2022-08-29T21:56:58.747Z,19.29
2022-08-29T21:59:30.809Z,19.26
2022-08-29T22:02:04.339Z,19.25
2022-08-29T22:04:36.483Z,19.24
2022-08-29T22:07:09.365Z,19.22
2022-08-29T22:09:41.460Z,19.21
2022-08-29T22:12:13.484Z,19.15
2022-08-29T22:15:04.113Z,19.18
2022-08-29T22:17:36.135Z,19.14
2022-08-29T22:20:08.787Z,19.12
2022-08-29T22:22:41.211Z,19.09
2022-08-29T22:25:13.422Z,19.04
2022-08-29T22:27:45.527Z,18.99
2022-08-29T22:30:17.772Z,18.93
2022-08-29T22:32:54.086Z,18.88
2022-08-29T22:35:26.426Z,18.82
2022-08-29T22:37:59.231Z,18.77
2022-08-29T22:40:31.809Z,18.69
2022-08-29T22:43:03.869Z,18.66
2022-08-29T22:45:35.867Z,18.60
2022-08-29T22:48:09.232Z,18.57
2022-08-29T22:50:46.037Z,18.53
2022-08-29T22:53:30.140Z,18.44
2022-08-29T22:56:02.417Z,18.42
2022-08-29T22:58:36.666Z,18.45
2022-08-29T23:01:08.996Z,18.48
2022-08-29T23:03:41.042Z,18.42
2022-08-29T23:06:13.053Z,18.37
2022-08-29T23:08:45.065Z,18.32
2022-08-29T23:11:18.046Z,18.30
2022-08-29T23:13:50.082Z,18.28
2022-08-29T23:16:23.995Z,18.19
2022-08-29T23:18:56.092Z,18.18
2022-08-29T23:21:30.073Z,18.15
2022-08-29T23:24:03.425Z,18.16
2022-08-29T23:26:35.961Z,18.17
2022-08-29T23:29:07.929Z,18.19
2022-08-29T23:31:40.161Z,18.18
2022-08-29T23:34:13.191Z,18.14
2022-08-29T23:36:45.167Z,18.11
2022-08-29T23:39:17.192Z,18.06
2022-08-29T23:41:49.215Z,18.07
2022-08-29T23:44:21.270Z,18.05
2022-08-29T23:46:56.268Z,18.02
2022-08-29T23:49:28.352Z,17.92
2022-08-29T23:52:00.437Z,17.84
2022-08-29T23:54:35.266Z,17.80
2022-08-29T23:57:07.270Z,17.78
